Time;durP1;ratioP1;P1;durP2;ratioP2;P2;SDS_P1;SDS_P2;PMS_P1;PMS_P2;Temp;Humidity;BMP_temperature;BMP_pressure;BME280_temperature;BME280_humidity;BME280_pressure;Samples;Min_cycle;Max_cycle;Signal;HPM_P1;HPM_P2
2024/02/26 00:00:24;;;;;;;13.70;8.88;;;;;;;;;;5006708;28;20101;-56
2024/02/26 00:02:50;;;;;;;13.77;9.25;;;;;;;;;;5009689;28;20025;-53
2024/02/26 00:05:16;;;;;;;13.60;8.80;;;;;;;;;;5010010;28;20079;-54
2024/02/26 00:07:42;;;;;;;13.65;8.80;;;;;;;;;;5009866;28;20061;-52
2024/02/26 00:10:09;;;;;;;13.60;8.90;;;;;;;;;;4316017;28;10000618;-53
2024/02/26 00:12:35;;;;;;;13.70;8.93;;;;;;;;;;4994686;28;20037;-50
2024/02/26 00:15:01;;;;;;;13.70;8.95;;;;;;;;;;4988236;28;20109;-55
2024/02/26 00:17:27;;;;;;;13.75;9.02;;;;;;;;;;4988166;28;20073;-52
2024/02/26 00:19:53;;;;;;;14.10;10.13;;;;;;;;;;4987711;28;20034;-51
2024/02/26 00:22:19;;;;;;;13.73;9.05;;;;;;;;;;4987594;28;20365;-56
2024/02/26 00:24:45;;;;;;;13.80;9.23;;;;;;;;;;4986332;28;20026;-54
2024/02/26 00:27:11;;;;;;;13.55;8.77;;;;;;;;;;4986288;28;20049;-57
2024/02/26 00:29:37;;;;;;;13.70;8.98;;;;;;;;;;4989034;28;20022;-52
2024/02/26 00:32:03;;;;;;;13.55;8.60;;;;;;;;;;4990455;28;20417;-51
2024/02/26 00:34:29;;;;;;;13.57;8.65;;;;;;;;;;4989042;28;20014;-48
2024/02/26 00:36:55;;;;;;;13.60;8.60;;;;;;;;;;4990842;28;20021;-52
2024/02/26 00:39:21;;;;;;;13.70;8.70;;;;;;;;;;4990830;28;20105;-54
2024/02/26 00:41:47;;;;;;;13.43;8.38;;;;;;;;;;4989567;28;20124;-58
2024/02/26 00:44:13;;;;;;;13.43;8.30;;;;;;;;;;4989205;28;20023;-54
2024/02/26 00:46:39;;;;;;;13.60;8.85;;;;;;;;;;4990001;28;20113;-53
2024/02/26 00:49:05;;;;;;;13.55;8.57;;;;;;;;;;4989926;28;20069;-52
2024/02/26 00:51:31;;;;;;;13.60;8.60;;;;;;;;;;4990169;28;20065;-56
2024/02/26 00:53:57;;;;;;;13.55;8.38;;;;;;;;;;4997362;28;20562;-54
2024/02/26 00:56:23;;;;;;;13.43;8.27;;;;;;;;;;5001585;28;20053;-56
2024/02/26 00:58:49;;;;;;;13.52;8.50;;;;;;;;;;5009769;28;20026;-51
2024/02/26 01:01:15;;;;;;;13.45;8.30;;;;;;;;;;5008491;28;20029;-58
2024/02/26 01:03:41;;;;;;;13.48;8.30;;;;;;;;;;5009912;28;20034;-57
2024/02/26 01:06:07;;;;;;;13.50;8.40;;;;;;;;;;5008412;28;20030;-58
2024/02/26 01:08:35;;;;;;;13.52;8.35;;;;;;;;;;5010101;28;20032;-55
2024/02/26 01:11:01;;;;;;;13.43;8.27;;;;;;;;;;5010109;28;20109;-55
2024/02/26 01:13:27;;;;;;;13.45;8.10;;;;;;;;;;5009957;28;20471;-55
2024/02/26 01:15:53;;;;;;;13.20;8.00;;;;;;;;;;5009995;28;20014;-56
2024/02/26 01:18:19;;;;;;;13.38;8.10;;;;;;;;;;5009607;28;20443;-57
2024/02/26 01:20:45;;;;;;;13.50;8.27;;;;;;;;;;5008740;28;20026;-55
2024/02/26 01:23:11;;;;;;;13.40;8.00;;;;;;;;;;5009538;28;20084;-57
2024/02/26 01:25:37;;;;;;;13.23;7.85;;;;;;;;;;5007889;28;20515;-52
2024/02/26 01:28:03;;;;;;;13.30;7.80;;;;;;;;;;5008337;28;20033;-52
2024/02/26 01:30:29;;;;;;;13.40;8.32;;;;;;;;;;5009734;28;20049;-53
2024/02/26 01:32:55;;;;;;;14.27;7.93;;;;;;;;;;5009476;28;20034;-53
2024/02/26 01:35:21;;;;;;;13.55;8.20;;;;;;;;;;5022395;28;20025;-52
2024/02/26 01:37:47;;;;;;;13.43;8.07;;;;;;;;;;5029595;28;20084;-51
2024/02/26 01:40:17;;;;;;;14.18;9.00;;;;;;;;;;5030240;28;20468;-55
2024/02/26 01:42:43;;;;;;;13.35;8.05;;;;;;;;;;5029775;28;20036;-55
2024/02/26 01:45:15;;;;;;;13.38;7.90;;;;;;;;;;5029740;28;20017;-55
2024/02/26 01:47:41;;;;;;;13.50;8.45;;;;;;;;;;5029880;28;20077;-55
2024/02/26 01:50:07;;;;;;;13.45;8.20;;;;;;;;;;5029434;28;20085;-54
2024/02/26 01:52:34;;;;;;;13.40;8.10;;;;;;;;;;5029348;28;20700;-53
2024/02/26 01:55:01;;;;;;;13.18;7.90;;;;;;;;;;5012736;28;20061;-54
2024/02/26 01:57:28;;;;;;;13.40;8.00;;;;;;;;;;5009602;28;20097;-54
2024/02/26 01:59:54;;;;;;;13.27;8.05;;;;;;;;;;5009915;28;20026;-57
2024/02/26 02:02:20;;;;;;;13.35;8.02;;;;;;;;;;5010501;28;20196;-55
2024/02/26 02:04:46;;;;;;;13.38;7.95;;;;;;;;;;5009999;28;20492;-54
2024/02/26 02:07:13;;;;;;;13.23;8.00;;;;;;;;;;5009302;28;20497;-55
2024/02/26 02:09:39;;;;;;;13.38;7.90;;;;;;;;;;5009043;28;20184;-56
2024/02/26 02:12:06;;;;;;;13.32;7.93;;;;;;;;;;5010672;28;20623;-53
2024/02/26 02:14:32;;;;;;;13.15;7.90;;;;;;;;;;5013174;28;20026;-56
2024/02/26 02:16:58;;;;;;;13.23;7.80;;;;;;;;;;5013109;28;20026;-54
2024/02/26 02:19:24;;;;;;;13.38;8.07;;;;;;;;;;5012752;28;20084;-53
2024/02/26 02:21:50;;;;;;;13.38;7.90;;;;;;;;;;5013175;28;20100;-54
2024/02/26 02:24:16;;;;;;;13.18;7.80;;;;;;;;;;5012967;28;20444;-53
2024/02/26 02:26:42;;;;;;;13.23;7.90;;;;;;;;;;5012800;28;20069;-53
2024/02/26 02:29:09;;;;;;;13.38;8.07;;;;;;;;;;5012793;28;20058;-55
2024/02/26 02:31:35;;;;;;;13.38;8.00;;;;;;;;;;5012618;28;20542;-50
2024/02/26 02:34:01;;;;;;;13.48;8.10;;;;;;;;;;5011554;28;20104;-52
2024/02/26 02:36:27;;;;;;;13.57;8.48;;;;;;;;;;5014855;28;20026;-55
2024/02/26 02:38:53;;;;;;;13.35;7.93;;;;;;;;;;5014992;28;20018;-54
2024/02/26 02:41:19;;;;;;;13.25;7.88;;;;;;;;;;5013319;28;20492;-53
2024/02/26 02:43:45;;;;;;;13.70;8.30;;;;;;;;;;5011386;28;20476;-54
2024/02/26 02:46:11;;;;;;;13.35;8.05;;;;;;;;;;5013946;28;20022;-55
2024/02/26 02:48:38;;;;;;;13.32;8.07;;;;;;;;;;5012887;28;20463;-51
2024/02/26 02:51:04;;;;;;;13.40;8.07;;;;;;;;;;5013008;28;20431;-55
2024/02/26 02:53:30;;;;;;;13.38;8.00;;;;;;;;;;5011610;28;20046;-55
2024/02/26 02:55:56;;;;;;;13.20;7.80;;;;;;;;;;5011928;28;20036;-54
2024/02/26 02:58:22;;;;;;;13.15;7.75;;;;;;;;;;5012662;28;20018;-52
2024/02/26 03:00:48;;;;;;;13.35;7.82;;;;;;;;;;5012720;28;20516;-55
2024/02/26 03:03:14;;;;;;;13.27;7.80;;;;;;;;;;5012359;28;20030;-52
2024/02/26 03:05:40;;;;;;;13.07;7.70;;;;;;;;;;5012384;28;20099;-54
2024/02/26 03:08:06;;;;;;;13.40;8.10;;;;;;;;;;5012427;28;20037;-55
2024/02/26 03:10:32;;;;;;;13.38;7.90;;;;;;;;;;5012066;28;20083;-54
2024/02/26 03:12:58;;;;;;;13.38;8.00;;;;;;;;;;5011898;28;20157;-53
2024/02/26 03:15:24;;;;;;;13.35;8.07;;;;;;;;;;5011900;28;20028;-53
2024/02/26 03:17:50;;;;;;;13.45;8.10;;;;;;;;;;5012021;28;20026;-53
2024/02/26 03:20:19;;;;;;;13.27;8.07;;;;;;;;;;5012032;28;20018;-53
2024/02/26 03:22:45;;;;;;;13.38;8.10;;;;;;;;;;5011112;28;20022;-56
2024/02/26 03:25:11;;;;;;;13.15;7.88;;;;;;;;;;5012111;28;20038;-55
2024/02/26 03:27:37;;;;;;;13.10;7.70;;;;;;;;;;5010513;28;20133;-55
2024/02/26 03:30:03;;;;;;;13.40;8.10;;;;;;;;;;5011604;28;20061;-55
2024/02/26 03:32:29;;;;;;;13.25;7.80;;;;;;;;;;5011871;28;20076;-55
2024/02/26 03:34:55;;;;;;;13.10;7.80;;;;;;;;;;5011564;28;20026;-57
2024/02/26 03:37:21;;;;;;;13.35;7.90;;;;;;;;;;5011653;28;20026;-57
2024/02/26 03:39:47;;;;;;;13.25;7.80;;;;;;;;;;5009980;28;20384;-56
2024/02/26 03:42:13;;;;;;;14.07;8.23;;;;;;;;;;5009502;28;20096;-54
2024/02/26 03:44:39;;;;;;;13.10;7.60;;;;;;;;;;5011123;28;20528;-57
2024/02/26 03:47:05;;;;;;;13.02;7.68;;;;;;;;;;5010957;28;20049;-53
2024/02/26 03:49:31;;;;;;;13.18;7.72;;;;;;;;;;5010957;28;20086;-56
2024/02/26 03:51:57;;;;;;;13.05;7.57;;;;;;;;;;5001442;28;20480;-54
2024/02/26 03:54:23;;;;;;;13.07;7.60;;;;;;;;;;4992319;28;20037;-57
2024/02/26 03:56:49;;;;;;;13.20;7.80;;;;;;;;;;4991711;28;20031;-50
2024/02/26 03:59:15;;;;;;;13.18;7.80;;;;;;;;;;4990198;28;20073;-52
2024/02/26 04:01:47;;;;;;;13.43;8.02;;;;;;;;;;4991353;28;20500;-54
2024/02/26 04:04:12;;;;;;;13.40;8.10;;;;;;;;;;4991444;28;20061;-56
2024/02/26 04:06:38;;;;;;;13.45;8.20;;;;;;;;;;4991360;28;20030;-55
2024/02/26 04:09:04;;;;;;;13.43;8.07;;;;;;;;;;4991397;28;20511;-58
2024/02/26 04:11:30;;;;;;;16.35;9.65;;;;;;;;;;4991544;28;20034;-54
2024/02/26 04:13:56;;;;;;;13.45;8.10;;;;;;;;;;4991412;28;20109;-55
2024/02/26 04:16:22;;;;;;;13.48;8.25;;;;;;;;;;4991502;28;20038;-57
2024/02/26 04:18:49;;;;;;;13.30;8.07;;;;;;;;;;4991085;28;20080;-50
2024/02/26 04:21:15;;;;;;;13.70;8.18;;;;;;;;;;4991072;28;20038;-55
2024/02/26 04:23:41;;;;;;;13.35;8.07;;;;;;;;;;4991095;28;20491;-53
2024/02/26 04:26:07;;;;;;;13.15;7.78;;;;;;;;;;4990774;28;20034;-53
2024/02/26 04:28:33;;;;;;;13.40;8.05;;;;;;;;;;4990843;28;20080;-56
2024/02/26 04:30:59;;;;;;;13.38;8.00;;;;;;;;;;4991045;28;20033;-55
2024/02/26 04:33:25;;;;;;;13.43;8.15;;;;;;;;;;4991099;28;20030;-58
2024/02/26 04:35:51;;;;;;;13.25;7.90;;;;;;;;;;4990916;28;20445;-53
2024/02/26 04:38:17;;;;;;;13.50;8.30;;;;;;;;;;4991033;28;20022;-54
2024/02/26 04:40:43;;;;;;;13.45;8.20;;;;;;;;;;4990816;28;20053;-54
2024/02/26 04:43:09;;;;;;;13.38;8.00;;;;;;;;;;4990541;28;20153;-55
2024/02/26 04:45:35;;;;;;;13.35;7.93;;;;;;;;;;4990941;28;20053;-52
2024/02/26 04:48:01;;;;;;;13.50;8.30;;;;;;;;;;4990818;28;20062;-55
2024/02/26 04:50:27;;;;;;;13.60;8.68;;;;;;;;;;5009828;28;20056;-54
2024/02/26 04:52:53;;;;;;;13.48;8.10;;;;;;;;;;5010007;28;20060;-54
2024/02/26 04:55:18;;;;;;;13.43;8.20;;;;;;;;;;5009885;28;20055;-54
2024/02/26 04:57:44;;;;;;;13.43;8.30;;;;;;;;;;5009504;28;20058;-53
2024/02/26 05:00:11;;;;;;;13.52;8.45;;;;;;;;;;5009756;28;20022;-54
2024/02/26 05:02:38;;;;;;;13.60;8.57;;;;;;;;;;5009859;28;20057;-54
2024/02/26 05:05:05;;;;;;;13.57;8.68;;;;;;;;;;5010249;28;20030;-53
2024/02/26 05:07:32;;;;;;;13.55;8.48;;;;;;;;;;5009967;28;20026;-52
2024/02/26 05:09:58;;;;;;;13.57;8.60;;;;;;;;;;5009538;28;20094;-56
2024/02/26 05:12:24;;;;;;;13.50;8.50;;;;;;;;;;5009724;28;20037;-56
2024/02/26 05:14:50;;;;;;;13.48;8.50;;;;;;;;;;5010010;28;20026;-56
2024/02/26 05:17:16;;;;;;;13.57;8.68;;;;;;;;;;5009940;28;20014;-55
2024/02/26 05:19:42;;;;;;;13.43;8.30;;;;;;;;;;5008706;28;20098;-55
2024/02/26 05:22:08;;;;;;;13.63;8.70;;;;;;;;;;5009970;28;20113;-54
2024/02/26 05:24:34;;;;;;;13.60;8.60;;;;;;;;;;5009989;28;20036;-57
2024/02/26 05:27:00;;;;;;;13.57;8.68;;;;;;;;;;5010058;28;20511;-55
2024/02/26 05:29:26;;;;;;;13.43;8.32;;;;;;;;;;5009865;28;20088;-53
2024/02/26 05:31:54;;;;;;;13.63;8.75;;;;;;;;;;5009838;28;20466;-54
2024/02/26 05:34:20;;;;;;;13.80;9.10;;;;;;;;;;5009680;28;20053;-53
2024/02/26 05:36:46;;;;;;;13.70;8.90;;;;;;;;;;5009744;28;20630;-55
2024/02/26 05:39:12;;;;;;;13.73;9.00;;;;;;;;;;5009750;28;20018;-55
2024/02/26 05:41:38;;;;;;;13.70;9.05;;;;;;;;;;5008948;28;20096;-58
2024/02/26 05:44:04;;;;;;;13.68;8.90;;;;;;;;;;5009378;28;20108;-56
2024/02/26 05:46:30;;;;;;;13.60;8.77;;;;;;;;;;5011828;28;20534;-54
2024/02/26 05:48:56;;;;;;;13.90;9.10;;;;;;;;;;5011941;28;20034;-56
2024/02/26 05:51:22;;;;;;;13.70;8.93;;;;;;;;;;5013615;28;20034;-58
2024/02/26 05:53:53;;;;;;;13.57;8.80;;;;;;;;;;5013700;28;20029;-58
2024/02/26 05:56:19;;;;;;;13.57;8.73;;;;;;;;;;5013594;28;20041;-57
2024/02/26 05:58:45;;;;;;;13.70;9.00;;;;;;;;;;5013588;28;20618;-51
2024/02/26 06:01:11;;;;;;;13.60;8.75;;;;;;;;;;5013358;28;20022;-53
2024/02/26 06:03:37;;;;;;;13.63;8.80;;;;;;;;;;5013292;28;20481;-57
2024/02/26 06:06:03;;;;;;;13.57;8.63;;;;;;;;;;5013832;28;20044;-55
2024/02/26 06:08:29;;;;;;;13.68;8.75;;;;;;;;;;5013275;28;20026;-53
2024/02/26 06:10:55;;;;;;;13.55;8.50;;;;;;;;;;5013154;28;20498;-53
2024/02/26 06:13:21;;;;;;;13.65;8.75;;;;;;;;;;5013421;28;20026;-57
2024/02/26 06:15:47;;;;;;;13.60;8.68;;;;;;;;;;5013416;28;20022;-53
2024/02/26 06:18:13;;;;;;;13.65;8.80;;;;;;;;;;5013172;28;20026;-56
2024/02/26 06:20:39;;;;;;;13.70;9.02;;;;;;;;;;5012882;28;20061;-50
2024/02/26 06:23:05;;;;;;;13.68;9.00;;;;;;;;;;5012459;28;20109;-59
2024/02/26 06:25:31;;;;;;;13.82;9.25;;;;;;;;;;5012588;28;20033;-56
2024/02/26 06:27:57;;;;;;;13.80;9.30;;;;;;;;;;5012831;28;20022;-53
2024/02/26 06:30:23;;;;;;;13.75;9.00;;;;;;;;;;5012813;28;20459;-57
2024/02/26 06:32:49;;;;;;;13.68;8.90;;;;;;;;;;5011223;28;20031;-55
2024/02/26 06:35:15;;;;;;;13.60;8.85;;;;;;;;;;5012836;28;20029;-57
2024/02/26 06:37:41;;;;;;;13.60;8.60;;;;;;;;;;5038159;22;20052;-54
2024/02/26 06:40:07;;;;;;;13.48;8.35;;;;;;;;;;5051615;28;20198;-47
2024/02/26 06:42:33;;;;;;;13.32;8.25;;;;;;;;;;5051018;28;20032;-52
2024/02/26 06:44:59;;;;;;;13.52;8.45;;;;;;;;;;5051367;28;20021;-53
2024/02/26 06:47:25;;;;;;;13.57;8.52;;;;;;;;;;5051058;28;20032;-55
2024/02/26 06:49:52;;;;;;;13.57;8.60;;;;;;;;;;5052587;28;20356;-54
2024/02/26 06:52:18;;;;;;;13.55;8.40;;;;;;;;;;5051825;28;20029;-51
2024/02/26 06:54:44;;;;;;;13.60;8.77;;;;;;;;;;5050894;28;20025;-53
2024/02/26 06:57:10;;;;;;;13.43;8.32;;;;;;;;;;5051026;28;20031;-52
2024/02/26 06:59:36;;;;;;;13.63;8.73;;;;;;;;;;5052357;28;20033;-55
2024/02/26 07:02:02;;;;;;;13.60;8.70;;;;;;;;;;5052337;28;20087;-47
2024/02/26 07:04:28;;;;;;;13.57;8.57;;;;;;;;;;5048264;28;20025;-50
2024/02/26 07:06:54;;;;;;;13.48;8.25;;;;;;;;;;5042704;28;20031;-51
2024/02/26 07:09:20;;;;;;;13.43;8.10;;;;;;;;;;5039070;28;20479;-50
2024/02/26 07:11:46;;;;;;;13.50;8.25;;;;;;;;;;5032587;28;20030;-55
2024/02/26 07:14:13;;;;;;;13.50;8.30;;;;;;;;;;5049770;28;20589;-52
2024/02/26 07:16:39;;;;;;;13.15;8.00;;;;;;;;;;5050437;28;20586;-52
2024/02/26 07:19:05;;;;;;;13.32;8.13;;;;;;;;;;5051589;28;20250;-55
2024/02/26 07:21:31;;;;;;;13.40;8.07;;;;;;;;;;5043481;28;20561;-55
2024/02/26 07:23:57;;;;;;;13.45;8.10;;;;;;;;;;5031691;28;20045;-53
2024/02/26 07:26:25;;;;;;;13.20;7.90;;;;;;;;;;5031961;28;20557;-56
2024/02/26 07:28:51;;;;;;;13.45;8.20;;;;;;;;;;5031300;28;20072;-53
2024/02/26 07:31:18;;;;;;;13.43;8.00;;;;;;;;;;5031312;28;20029;-52
2024/02/26 07:33:44;;;;;;;13.52;8.30;;;;;;;;;;5031479;28;20022;-53
2024/02/26 07:36:10;;;;;;;13.48;8.30;;;;;;;;;;5031235;28;20022;-50
2024/02/26 07:38:36;;;;;;;13.48;8.23;;;;;;;;;;5037822;28;20029;-55
2024/02/26 07:41:02;;;;;;;13.48;8.32;;;;;;;;;;5051323;28;20082;-47
2024/02/26 07:43:28;;;;;;;13.57;8.50;;;;;;;;;;5051382;28;20446;-52
2024/02/26 07:45:54;;;;;;;13.60;8.50;;;;;;;;;;5051462;28;20103;-52
2024/02/26 07:48:20;;;;;;;13.40;8.05;;;;;;;;;;5051398;28;20102;-51
2024/02/26 07:50:46;;;;;;;13.50;8.40;;;;;;;;;;5051251;28;20032;-53
2024/02/26 07:53:12;;;;;;;13.50;8.20;;;;;;;;;;5051213;28;20036;-52
2024/02/26 07:55:38;;;;;;;13.35;8.05;;;;;;;;;;5050241;28;20465;-50
2024/02/26 07:58:04;;;;;;;13.52;8.48;;;;;;;;;;5051412;28;20021;-55
2024/02/26 08:00:30;;;;;;;13.55;8.30;;;;;;;;;;5051255;28;20075;-55
2024/02/26 08:02:56;;;;;;;13.50;8.30;;;;;;;;;;5051087;28;20029;-54
2024/02/26 08:05:22;;;;;;;13.38;7.95;;;;;;;;;;5050119;28;20093;-53
2024/02/26 08:07:48;;;;;;;13.23;7.80;;;;;;;;;;5051190;28;20479;-53
2024/02/26 08:10:14;;;;;;;13.40;8.00;;;;;;;;;;5050774;28;20033;-53
2024/02/26 08:12:40;;;;;;;13.45;8.10;;;;;;;;;;5049338;28;20032;-49
2024/02/26 08:15:07;;;;;;;13.32;7.93;;;;;;;;;;5050651;28;20029;-57
2024/02/26 08:17:33;;;;;;;13.38;8.00;;;;;;;;;;5050439;28;20070;-52
2024/02/26 08:19:59;;;;;;;13.43;8.07;;;;;;;;;;5050743;28;20025;-53
2024/02/26 08:22:25;;;;;;;13.45;8.23;;;;;;;;;;5050700;28;20609;-52
2024/02/26 08:24:51;;;;;;;13.45;8.20;;;;;;;;;;5050757;28;20100;-45
2024/02/26 08:27:17;;;;;;;13.48;8.18;;;;;;;;;;5050523;28;20209;-47
2024/02/26 08:29:43;;;;;;;13.90;9.00;;;;;;;;;;5050839;28;20075;-54
2024/02/26 08:32:09;;;;;;;13.40;8.10;;;;;;;;;;5050219;28;20033;-53
2024/02/26 08:34:35;;;;;;;13.43;8.20;;;;;;;;;;5050525;28;20072;-54
2024/02/26 08:37:01;;;;;;;13.52;8.30;;;;;;;;;;5050433;28;20021;-53
2024/02/26 08:39:28;;;;;;;13.32;7.90;;;;;;;;;;5050398;28;20483;-53
2024/02/26 08:41:54;;;;;;;13.32;7.85;;;;;;;;;;5049257;28;20449;-54
2024/02/26 08:44:20;;;;;;;13.90;8.10;;;;;;;;;;5050646;28;20048;-50
2024/02/26 08:46:46;;;;;;;13.27;7.90;;;;;;;;;;5050241;28;20505;-52
2024/02/26 08:49:12;;;;;;;13.25;7.72;;;;;;;;;;5050282;28;20053;-55
2024/02/26 08:51:45;;;;;;;13.63;8.25;;;;;;;;;;5050117;28;20024;-53
2024/02/26 08:54:11;;;;;;;13.18;7.75;;;;;;;;;;5050148;28;20501;-45
2024/02/26 08:56:37;;;;;;;13.35;7.80;;;;;;;;;;5050346;28;20512;-49
2024/02/26 08:59:03;;;;;;;13.07;7.68;;;;;;;;;;5049619;28;20340;-47
2024/02/26 09:01:29;;;;;;;13.27;7.85;;;;;;;;;;5049653;28;20025;-49
2024/02/26 09:03:56;;;;;;;13.23;7.75;;;;;;;;;;5048728;28;20021;-54
2024/02/26 09:06:22;;;;;;;13.35;7.97;;;;;;;;;;5049879;28;20036;-52
2024/02/26 09:08:48;;;;;;;13.32;8.10;;;;;;;;;;5049862;28;20499;-49
2024/02/26 09:11:14;;;;;;;13.48;8.18;;;;;;;;;;5049261;28;20029;-51
2024/02/26 09:13:40;;;;;;;13.27;7.80;;;;;;;;;;5048353;28;20017;-53
2024/02/26 09:16:06;;;;;;;13.25;7.70;;;;;;;;;;5047504;28;20487;-49
2024/02/26 09:18:32;;;;;;;12.88;7.45;;;;;;;;;;5048299;28;20383;-55
2024/02/26 09:20:58;;;;;;;12.75;7.40;;;;;;;;;;5047736;28;20017;-54
2024/02/26 09:23:24;;;;;;;13.60;8.10;;;;;;;;;;5048166;28;20024;-50
2024/02/26 09:25:50;;;;;;;12.73;7.38;;;;;;;;;;5048279;28;20585;-55
2024/02/26 09:28:17;;;;;;;12.98;7.65;;;;;;;;;;5049436;28;20739;-53
2024/02/26 09:30:43;;;;;;;12.90;7.45;;;;;;;;;;5048687;28;20044;-54
2024/02/26 09:33:09;;;;;;;12.90;7.47;;;;;;;;;;5049540;28;20398;-51
2024/02/26 09:35:35;;;;;;;12.32;7.20;;;;;;;;;;5049773;28;20116;-52
2024/02/26 09:38:02;;;;;;;13.18;7.70;;;;;;;;;;5049562;28;20100;-55
2024/02/26 09:40:28;;;;;;;13.15;7.72;;;;;;;;;;5049874;28;20497;-50
2024/02/26 09:42:57;;;;;;;13.60;8.90;;;;;;;;;;5050816;28;20025;-50
2024/02/26 09:45:25;;;;;;;12.75;7.47;;;;;;;;;;5050661;28;20108;-53
2024/02/26 09:47:51;;;;;;;13.05;7.78;;;;;;;;;;5048293;28;20037;-53
2024/02/26 09:50:22;;;;;;;13.07;7.60;;;;;;;;;;5048408;28;20033;-54
2024/02/26 09:52:48;;;;;;;13.30;7.82;;;;;;;;;;5049032;28;20071;-49
2024/02/26 09:55:14;;;;;;;13.23;7.70;;;;;;;;;;5049314;28;20078;-52
2024/02/26 09:57:43;;;;;;;13.20;7.70;;;;;;;;;;5047967;28;20025;-52
2024/02/26 10:00:10;;;;;;;13.13;7.63;;;;;;;;;;5049482;28;20060;-55
2024/02/26 10:02:36;;;;;;;13.15;7.60;;;;;;;;;;5049363;28;20025;-53
2024/02/26 10:05:06;;;;;;;12.90;7.70;;;;;;;;;;5049512;28;20021;-55
2024/02/26 10:07:32;;;;;;;12.93;7.47;;;;;;;;;;5049467;28;20021;-51
2024/02/26 10:09:58;;;;;;;13.13;7.68;;;;;;;;;;5049430;28;20542;-53
2024/02/26 10:12:25;;;;;;;12.88;7.43;;;;;;;;;;5049373;28;20463;-49
2024/02/26 10:14:52;;;;;;;13.20;7.70;;;;;;;;;;5049227;28;20075;-53
2024/02/26 10:17:19;;;;;;;14.52;8.00;;;;;;;;;;5049461;28;20028;-52
2024/02/26 10:19:45;;;;;;;13.60;8.30;;;;;;;;;;5049831;28;20029;-53
2024/02/26 10:22:11;;;;;;;13.50;7.82;;;;;;;;;;5049286;28;20407;-50
2024/02/26 10:24:37;;;;;;;13.60;8.00;;;;;;;;;;5049664;28;20031;-53
2024/02/26 10:27:04;;;;;;;12.88;7.50;;;;;;;;;;5049404;28;20453;-52
2024/02/26 10:29:30;;;;;;;13.02;7.63;;;;;;;;;;5049432;28;20021;-52
2024/02/26 10:31:56;;;;;;;13.13;7.70;;;;;;;;;;5050320;28;20040;-51
2024/02/26 10:34:23;;;;;;;13.23;7.70;;;;;;;;;;5052986;28;20025;-50
2024/02/26 10:36:49;;;;;;;13.30;7.80;;;;;;;;;;5051766;28;20023;-53
2024/02/26 10:39:16;;;;;;;13.35;7.90;;;;;;;;;;5052719;28;20468;-51
2024/02/26 10:41:42;;;;;;;12.90;7.50;;;;;;;;;;5052765;28;20020;-50
2024/02/26 10:44:12;;;;;;;13.32;7.85;;;;;;;;;;5052771;28;20033;-50
2024/02/26 10:46:39;;;;;;;13.30;7.95;;;;;;;;;;5052758;28;20021;-53
2024/02/26 10:49:06;;;;;;;13.25;7.88;;;;;;;;;;5051446;28;20025;-54
2024/02/26 10:51:32;;;;;;;13.38;8.00;;;;;;;;;;5052576;28;20029;-52
2024/02/26 10:54:00;;;;;;;13.75;8.73;;;;;;;;;;5052312;28;20029;-49
2024/02/26 10:56:27;;;;;;;13.30;7.80;;;;;;;;;;5052724;28;20028;-51
2024/02/26 10:58:53;;;;;;;13.18;7.63;;;;;;;;;;5052653;28;20483;-55
2024/02/26 11:01:21;;;;;;;13.30;7.80;;;;;;;;;;5052183;28;20032;-54
2024/02/26 11:03:48;;;;;;;13.23;7.80;;;;;;;;;;5052318;28;20605;-52
2024/02/26 11:06:14;;;;;;;13.38;7.90;;;;;;;;;;5052519;28;20035;-55
2024/02/26 11:08:41;;;;;;;13.38;7.97;;;;;;;;;;5050817;28;20483;-53
2024/02/26 11:11:08;;;;;;;13.02;7.80;;;;;;;;;;5051836;28;20032;-51
2024/02/26 11:13:39;;;;;;;13.18;7.80;;;;;;;;;;5051661;28;20052;-55
2024/02/26 11:16:06;;;;;;;13.32;8.00;;;;;;;;;;5052085;28;20101;-50
2024/02/26 11:18:32;;;;;;;13.20;7.80;;;;;;;;;;5051919;28;20031;-55
2024/02/26 11:20:59;;;;;;;13.38;7.97;;;;;;;;;;5052124;28;20387;-53
2024/02/26 11:23:25;;;;;;;14.57;11.25;;;;;;;;;;5051479;28;20521;-47
2024/02/26 11:25:52;;;;;;;13.43;8.18;;;;;;;;;;5050485;28;20033;-51
2024/02/26 11:28:19;;;;;;;13.20;7.70;;;;;;;;;;5051744;28;20113;-53
2024/02/26 11:30:48;;;;;;;13.13;7.70;;;;;;;;;;5051958;28;20506;-47
2024/02/26 11:33:14;;;;;;;13.13;7.70;;;;;;;;;;5050385;28;20021;-51
2024/02/26 11:35:40;;;;;;;13.18;7.68;;;;;;;;;;5050083;28;20028;-59
2024/02/26 11:38:07;;;;;;;12.98;7.80;;;;;;;;;;5048524;28;20033;-53
2024/02/26 11:40:33;;;;;;;13.23;7.80;;;;;;;;;;5049454;28;20025;-53
2024/02/26 11:42:59;;;;;;;12.88;7.53;;;;;;;;;;5049447;28;20090;-50
2024/02/26 11:45:49;;;;;;;13.15;7.70;;;;;;;;;;5048766;28;20025;-54
2024/02/26 11:48:15;;;;;;;13.13;7.80;;;;;;;;;;5050697;28;20040;-54
2024/02/26 11:50:48;;;;;;;13.32;7.88;;;;;;;;;;5051458;28;20391;-50
2024/02/26 11:53:21;;;;;;;13.05;7.72;;;;;;;;;;5049474;28;20051;-52
2024/02/26 11:55:48;;;;;;;13.25;7.80;;;;;;;;;;5051220;28;20048;-55
2024/02/26 11:58:14;;;;;;;13.13;7.70;;;;;;;;;;5050954;28;20013;-49
2024/02/26 12:00:40;;;;;;;13.40;7.90;;;;;;;;;;5049922;28;20021;-53
2024/02/26 12:03:08;;;;;;;13.40;8.18;;;;;;;;;;5050815;28;20056;-49
2024/02/26 12:05:36;;;;;;;13.35;8.00;;;;;;;;;;5050949;28;20041;-48
2024/02/26 12:08:09;;;;;;;13.52;8.30;;;;;;;;;;5049653;28;20102;-52
2024/02/26 12:10:39;;;;;;;13.27;7.95;;;;;;;;;;5049577;28;20033;-48
2024/02/26 12:13:12;;;;;;;14.90;9.90;;;;;;;;;;5049438;28;20075;-48
2024/02/26 12:15:39;;;;;;;13.40;7.95;;;;;;;;;;5045140;28;20106;-52
2024/02/26 12:18:06;;;;;;;13.27;8.00;;;;;;;;;;5040447;28;20025;-49
2024/02/26 12:20:32;;;;;;;13.40;8.00;;;;;;;;;;5041533;28;20024;-55
2024/02/26 12:22:59;;;;;;;13.07;7.70;;;;;;;;;;5038088;28;20383;-53
2024/02/26 12:25:26;;;;;;;13.32;7.90;;;;;;;;;;5040070;28;20021;-52
2024/02/26 12:27:52;;;;;;;13.40;8.00;;;;;;;;;;5041070;28;20020;-55
2024/02/26 12:30:19;;;;;;;13.35;8.00;;;;;;;;;;5030333;28;20017;-51
2024/02/26 12:32:45;;;;;;;13.27;7.93;;;;;;;;;;5029186;28;20037;-48
2024/02/26 12:35:11;;;;;;;13.05;7.63;;;;;;;;;;5029399;28;20036;-49
2024/02/26 12:37:38;;;;;;;13.23;7.80;;;;;;;;;;5031082;28;20069;-50
2024/02/26 12:40:08;;;;;;;13.35;7.90;;;;;;;;;;5029352;28;20021;-49
2024/02/26 12:42:39;;;;;;;13.25;7.90;;;;;;;;;;5030334;28;20033;-53
2024/02/26 12:45:09;;;;;;;13.38;7.95;;;;;;;;;;5030714;28;20045;-50
2024/02/26 12:47:36;;;;;;;13.40;8.10;;;;;;;;;;5030263;28;20555;-53
2024/02/26 12:50:03;;;;;;;13.30;7.88;;;;;;;;;;5029505;28;20033;-51
2024/02/26 12:52:29;;;;;;;13.55;8.40;;;;;;;;;;5030525;28;20056;-46
2024/02/26 12:54:56;;;;;;;13.38;8.10;;;;;;;;;;5028523;28;20557;-46
2024/02/26 12:57:22;;;;;;;13.60;8.43;;;;;;;;;;5030332;28;20029;-46
2024/02/26 12:59:48;;;;;;;13.38;8.10;;;;;;;;;;5030392;28;20036;-49
2024/02/26 13:02:14;;;;;;;13.38;8.00;;;;;;;;;;5029258;28;20033;-49
2024/02/26 13:04:40;;;;;;;13.55;8.30;;;;;;;;;;5028892;28;20025;-48
2024/02/26 13:07:06;;;;;;;13.38;8.00;;;;;;;;;;5048600;28;20017;-52
2024/02/26 13:09:34;;;;;;;13.35;8.00;;;;;;;;;;5050192;28;20108;-52
2024/02/26 13:12:00;;;;;;;13.38;8.07;;;;;;;;;;5049666;28;20475;-51
2024/02/26 13:14:27;;;;;;;13.25;7.80;;;;;;;;;;5048564;28;20036;-46
2024/02/26 13:16:56;;;;;;;13.23;7.88;;;;;;;;;;5048395;28;20040;-52
2024/02/26 13:19:22;;;;;;;13.48;8.10;;;;;;;;;;5049957;28;20044;-53
2024/02/26 13:21:48;;;;;;;13.35;7.90;;;;;;;;;;5050060;28;20467;-54
2024/02/26 13:24:14;;;;;;;13.13;7.68;;;;;;;;;;5050070;28;20027;-52
2024/02/26 13:26:41;;;;;;;13.40;8.07;;;;;;;;;;5050645;28;20112;-51
2024/02/26 13:29:07;;;;;;;13.40;8.10;;;;;;;;;;5049527;28;20067;-47
2024/02/26 13:31:39;;;;;;;13.35;8.00;;;;;;;;;;5049700;28;20029;-54
2024/02/26 13:34:05;;;;;;;13.45;8.10;;;;;;;;;;5049696;28;20033;-47
2024/02/26 13:36:31;;;;;;;13.40;8.02;;;;;;;;;;5048576;28;20535;-49
2024/02/26 13:38:57;;;;;;;13.30;7.90;;;;;;;;;;5048136;28;20033;-49
2024/02/26 13:41:23;;;;;;;13.48;8.20;;;;;;;;;;5049622;28;20021;-52
2024/02/26 13:43:50;;;;;;;13.35;7.88;;;;;;;;;;5049192;28;20025;-50
2024/02/26 13:46:16;;;;;;;13.38;7.97;;;;;;;;;;5049790;28;20499;-55
2024/02/26 13:48:43;;;;;;;13.38;8.05;;;;;;;;;;5049629;28;20063;-51
2024/02/26 13:51:09;;;;;;;13.38;8.07;;;;;;;;;;5048621;28;20021;-52
2024/02/26 13:53:35;;;;;;;13.40;8.07;;;;;;;;;;5049411;28;20033;-50
2024/02/26 13:56:01;;;;;;;13.40;7.88;;;;;;;;;;5049673;28;20506;-52
2024/02/26 13:58:29;;;;;;;13.48;8.25;;;;;;;;;;5048349;28;20029;-51
2024/02/26 14:00:55;;;;;;;13.55;8.35;;;;;;;;;;5049654;28;20025;-53
2024/02/26 14:03:21;;;;;;;13.40;8.02;;;;;;;;;;5049719;28;20033;-52
2024/02/26 14:05:47;;;;;;;13.30;8.10;;;;;;;;;;5048193;28;20029;-54
2024/02/26 14:08:13;;;;;;;13.20;7.72;;;;;;;;;;5052769;28;20032;-54
2024/02/26 14:10:39;;;;;;;13.40;8.00;;;;;;;;;;5053510;28;20517;-54
2024/02/26 14:13:05;;;;;;;13.38;7.90;;;;;;;;;;5052067;28;20056;-52
2024/02/26 14:15:32;;;;;;;13.30;7.80;;;;;;;;;;5053913;28;20495;-48
2024/02/26 14:17:58;;;;;;;13.30;7.88;;;;;;;;;;5053125;28;20017;-47
2024/02/26 14:20:24;;;;;;;13.13;7.95;;;;;;;;;;5051889;28;20116;-47
2024/02/26 14:22:53;;;;;;;13.32;7.90;;;;;;;;;;5052928;28;20017;-49
2024/02/26 14:25:20;;;;;;;13.38;8.00;;;;;;;;;;5051826;28;20595;-49